Date,TemperatureHighF,TemperatureAvgF,TemperatureLowF,DewpointHighF,DewpointAvgF,DewpointLowF,HumidityHigh,HumidityAvg,HumidityLow,PressureMaxIn,PressureMinIn,WindSpeedMaxMPH,WindSpeedAvgMPH,GustSpeedMaxMPH,PrecipitationSumIn
2013-4-1,44.8,35.7,30.0,40.0,26.9,19.6,87,70,55,29.86,29.43,27,15,0,0.00
2013-4-2,36.0,31.5,28.2,23.9,20.4,17.5,70,63,53,30.02,29.86,23,16,0,0.00
2013-4-3,36.7,32.2,28.8,23.5,20.1,17.0,68,61,50,30.27,30.01,20,14,0,0.00
2013-4-4,54.7,39.1,27.0,25.0,16.6,5.3,70,44,15,30.24,29.76,15,6,0,0.00
2013-4-5,39.7,36.9,34.0,33.0,26.1,19.0,84,65,48,30.05,29.74,23,10,0,0.00
2013-4-6,39.4,35.3,25.0,29.2,24.2,17.9,75,64,52,30.20,29.83,17,7,0,0.00
2013-4-7,68.0,52.5,38.7,45.9,34.4,23.5,81,52,34,29.93,29.52,25,9,0,0.00
2013-4-8,46.2,41.1,35.1,44.0,35.3,29.6,93,80,64,29.99,29.59,11,5,0,0.28
2013-4-9,47.5,43.9,40.8,44.4,40.6,38.4,96,88,80,30.00,29.65,17,6,0,0.55
2013-4-10,43.3,40.7,39.4,42.5,39.3,36.1,97,95,87,29.99,29.73,23,6,0,0.60
2013-4-11,39.7,35.5,32.7,37.7,31.3,26.7,94,85,64,30.01,29.77,15,7,0,0.48
2013-4-12,45.3,38.8,34.0,42.3,35.1,29.0,94,87,72,29.75,29.36,14,7,0,0.77
2013-4-13,45.1,41.7,37.8,37.0,34.5,30.8,82,76,62,29.79,29.62,16,8,0,0.01
2013-4-14,46.8,40.3,35.2,34.2,30.9,27.1,81,69,46,30.04,29.80,17,6,0,0.00
2013-4-15,59.4,45.0,38.1,47.7,35.9,26.8,87,71,56,30.01,29.83,9,4,0,0.00
2013-4-16,63.9,55.0,42.1,53.1,46.3,35.7,93,73,58,30.11,29.79,19,6,0,0.07
2013-4-17,51.4,43.4,36.1,37.9,34.1,29.7,86,71,48,30.26,30.07,10,4,0,0.00
2013-4-18,84.7,61.9,41.5,59.0,48.4,34.3,87,64,39,30.08,29.47,16,6,0,0.08
2013-4-19,72.9,58.0,42.8,57.2,45.8,29.9,82,64,55,29.59,29.16,20,9,0,0.05
2013-4-20,42.3,37.9,33.4,32.7,27.4,23.3,89,66,54,30.30,29.58,25,15,0,0.00
2013-4-21,42.6,36.6,32.2,27.4,23.0,16.6,67,58,46,30.57,30.30,16,7,0,0.00
2013-4-22,58.1,41.7,27.9,37.8,28.9,16.6,76,61,38,30.44,30.15,10,4,0,0.00
2013-4-23,54.0,45.8,36.0,40.4,33.8,26.7,83,64,44,30.16,29.74,10,4,0,0.00
2013-4-24,64.4,51.9,39.9,54.1,42.6,34.2,93,72,45,29.90,29.47,20,8,0,0.40
2013-4-25,56.7,49.1,38.7,39.0,33.8,27.5,87,57,36,30.17,29.91,21,8,0,0.01
2013-4-26,55.0,44.6,36.3,38.3,34.1,30.0,87,68,47,30.38,30.18,8,4,0,0.00
2013-4-27,54.1,45.9,36.9,43.7,33.8,25.0,82,63,53,30.28,30.05,8,4,0,0.00
2013-4-28,72.5,51.5,39.0,49.5,43.0,37.2,94,75,33,30.04,29.83,12,3,0,0.05
2013-4-29,62.6,51.7,46.2,52.1,47.1,42.8,92,85,66,29.86,29.80,6,2,0,0.03
2013-4-30,69.4,57.9,49.5,55.5,50.0,46.1,89,76,59,30.03,29.95,6,4,0,0.00